sensor_id;sensor_type;location;lat;lon;timestamp;P1;durP1;ratioP1;P2;durP2;ratioP2
31037;SDS011;17702;47.590;7.666;2022-09-20T00:03:39;6.72;;;0.80;;
31037;SDS011;17702;47.590;7.666;2022-09-20T00:08:36;1.15;;;0.82;;
31037;SDS011;17702;47.590;7.666;2022-09-20T00:11:03;3.45;;;0.80;;
31037;SDS011;17702;47.590;7.666;2022-09-20T00:13:31;2.58;;;1.35;;
31037;SDS011;17702;47.590;7.666;2022-09-20T00:15:58;0.95;;;0.50;;
31037;SDS011;17702;47.590;7.666;2022-09-20T00:18:24;1.65;;;0.60;;
31037;SDS011;17702;47.590;7.666;2022-09-20T00:20:51;0.90;;;0.60;;
31037;SDS011;17702;47.590;7.666;2022-09-20T00:23:17;1.13;;;0.35;;
31037;SDS011;17702;47.590;7.666;2022-09-20T00:25:44;2.88;;;0.57;;
31037;SDS011;17702;47.590;7.666;2022-09-20T00:28:10;4.72;;;0.63;;
31037;SDS011;17702;47.590;7.666;2022-09-20T00:30:36;1.00;;;0.60;;
31037;SDS011;17702;47.590;7.666;2022-09-20T00:33:03;1.35;;;0.77;;
31037;SDS011;17702;47.590;7.666;2022-09-20T00:35:28;2.05;;;1.20;;
31037;SDS011;17702;47.590;7.666;2022-09-20T00:37:55;3.63;;;3.33;;
31037;SDS011;17702;47.590;7.666;2022-09-20T00:40:21;3.00;;;0.40;;
31037;SDS011;17702;47.590;7.666;2022-09-20T00:42:48;1.25;;;0.57;;
31037;SDS011;17702;47.590;7.666;2022-09-20T00:45:24;1.75;;;0.50;;
31037;SDS011;17702;47.590;7.666;2022-09-20T00:50:28;3.05;;;0.70;;
31037;SDS011;17702;47.590;7.666;2022-09-20T00:55:40;1.10;;;0.45;;
31037;SDS011;17702;47.590;7.666;2022-09-20T00:58:09;2.58;;;0.60;;
31037;SDS011;17702;47.590;7.666;2022-09-20T01:00:36;0.57;;;0.40;;
31037;SDS011;17702;47.590;7.666;2022-09-20T01:03:03;1.60;;;0.68;;
31037;SDS011;17702;47.590;7.666;2022-09-20T01:05:32;0.50;;;0.43;;
31037;SDS011;17702;47.590;7.666;2022-09-20T01:08:00;0.90;;;0.43;;
31037;SDS011;17702;47.590;7.666;2022-09-20T01:10:26;2.10;;;0.77;;
31037;SDS011;17702;47.590;7.666;2022-09-20T01:12:52;2.13;;;0.57;;
31037;SDS011;17702;47.590;7.666;2022-09-20T01:15:18;1.58;;;0.68;;
31037;SDS011;17702;47.590;7.666;2022-09-20T01:17:47;0.88;;;0.38;;
31037;SDS011;17702;47.590;7.666;2022-09-20T01:20:20;3.95;;;0.70;;
31037;SDS011;17702;47.590;7.666;2022-09-20T01:27:42;1.63;;;0.52;;
31037;SDS011;17702;47.590;7.666;2022-09-20T01:30:13;2.42;;;0.47;;
31037;SDS011;17702;47.590;7.666;2022-09-20T01:32:44;3.72;;;0.90;;
31037;SDS011;17702;47.590;7.666;2022-09-20T01:35:36;4.28;;;0.70;;
31037;SDS011;17702;47.590;7.666;2022-09-20T01:41:19;2.50;;;0.60;;
31037;SDS011;17702;47.590;7.666;2022-09-20T01:43:52;2.13;;;0.57;;
31037;SDS011;17702;47.590;7.666;2022-09-20T01:46:38;1.48;;;0.82;;
31037;SDS011;17702;47.590;7.666;2022-09-20T01:51:53;1.45;;;0.68;;
31037;SDS011;17702;47.590;7.666;2022-09-20T01:54:42;1.80;;;0.60;;
31037;SDS011;17702;47.590;7.666;2022-09-20T02:00:57;1.00;;;0.55;;
31037;SDS011;17702;47.590;7.666;2022-09-20T02:06:07;2.33;;;0.43;;
31037;SDS011;17702;47.590;7.666;2022-09-20T02:11:16;3.65;;;0.55;;
31037;SDS011;17702;47.590;7.666;2022-09-20T02:16:43;1.10;;;0.40;;
31037;SDS011;17702;47.590;7.666;2022-09-20T02:29:57;0.88;;;0.50;;
31037;SDS011;17702;47.590;7.666;2022-09-20T02:32:46;1.88;;;0.43;;
31037;SDS011;17702;47.590;7.666;2022-09-20T02:36:00;3.53;;;0.38;;
31037;SDS011;17702;47.590;7.666;2022-09-20T02:52:59;2.15;;;0.65;;
31037;SDS011;17702;47.590;7.666;2022-09-20T02:55:48;0.95;;;0.40;;
31037;SDS011;17702;47.590;7.666;2022-09-20T03:07:56;1.15;;;0.57;;
31037;SDS011;17702;47.590;7.666;2022-09-20T03:10:27;1.10;;;0.60;;
31037;SDS011;17702;47.590;7.666;2022-09-20T03:13:14;1.23;;;0.40;;
31037;SDS011;17702;47.590;7.666;2022-09-20T03:15:56;1.10;;;0.40;;
31037;SDS011;17702;47.590;7.666;2022-09-20T03:27:06;1.33;;;0.45;;
31037;SDS011;17702;47.590;7.666;2022-09-20T03:41:48;1.02;;;0.40;;
31037;SDS011;17702;47.590;7.666;2022-09-20T03:44:30;0.80;;;0.57;;
31037;SDS011;17702;47.590;7.666;2022-09-20T03:47:04;3.13;;;0.85;;
31037;SDS011;17702;47.590;7.666;2022-09-20T03:52:45;5.15;;;0.75;;
31037;SDS011;17702;47.590;7.666;2022-09-20T04:03:51;1.40;;;0.65;;
31037;SDS011;17702;47.590;7.666;2022-09-20T04:09:14;2.58;;;0.60;;
31037;SDS011;17702;47.590;7.666;2022-09-20T04:23:24;3.05;;;0.80;;
31037;SDS011;17702;47.590;7.666;2022-09-20T04:25:55;2.00;;;0.50;;
31037;SDS011;17702;47.590;7.666;2022-09-20T04:28:25;1.83;;;0.82;;
31037;SDS011;17702;47.590;7.666;2022-09-20T04:31:00;2.30;;;1.27;;
31037;SDS011;17702;47.590;7.666;2022-09-20T04:33:35;1.98;;;0.88;;
31037;SDS011;17702;47.590;7.666;2022-09-20T04:55:50;2.22;;;0.68;;
31037;SDS011;17702;47.590;7.666;2022-09-20T04:58:47;1.88;;;0.77;;
31037;SDS011;17702;47.590;7.666;2022-09-20T05:01:38;3.35;;;0.95;;
31037;SDS011;17702;47.590;7.666;2022-09-20T05:07:12;0.98;;;0.80;;
31037;SDS011;17702;47.590;7.666;2022-09-20T05:10:01;3.15;;;0.85;;
31037;SDS011;17702;47.590;7.666;2022-09-20T05:18:17;2.75;;;0.82;;
31037;SDS011;17702;47.590;7.666;2022-09-20T05:26:45;0.77;;;0.70;;
31037;SDS011;17702;47.590;7.666;2022-09-20T05:29:30;1.67;;;0.80;;
31037;SDS011;17702;47.590;7.666;2022-09-20T05:34:32;1.65;;;1.00;;
31037;SDS011;17702;47.590;7.666;2022-09-20T05:39:52;2.70;;;0.73;;
31037;SDS011;17702;47.590;7.666;2022-09-20T05:42:41;4.72;;;1.00;;
31037;SDS011;17702;47.590;7.666;2022-09-20T05:50:45;4.65;;;1.23;;
31037;SDS011;17702;47.590;7.666;2022-09-20T05:56:33;1.73;;;0.80;;
31037;SDS011;17702;47.590;7.666;2022-09-20T06:02:37;5.55;;;1.25;;
31037;SDS011;17702;47.590;7.666;2022-09-20T06:05:31;1.10;;;1.00;;
31037;SDS011;17702;47.590;7.666;2022-09-20T06:08:26;3.33;;;1.30;;
31037;SDS011;17702;47.590;7.666;2022-09-20T06:11:13;1.25;;;0.90;;
31037;SDS011;17702;47.590;7.666;2022-09-20T06:21:57;2.40;;;1.40;;
31037;SDS011;17702;47.590;7.666;2022-09-20T06:24:31;1.27;;;1.17;;
31037;SDS011;17702;47.590;7.666;2022-09-20T06:27:24;2.65;;;1.20;;
31037;SDS011;17702;47.590;7.666;2022-09-20T06:30:00;3.40;;;1.65;;
31037;SDS011;17702;47.590;7.666;2022-09-20T06:32:30;2.93;;;1.83;;
31037;SDS011;17702;47.590;7.666;2022-09-20T06:34:56;2.08;;;1.67;;
31037;SDS011;17702;47.590;7.666;2022-09-20T06:42:55;1.40;;;1.30;;
31037;SDS011;17702;47.590;7.666;2022-09-20T06:45:24;1.67;;;1.50;;
31037;SDS011;17702;47.590;7.666;2022-09-20T06:47:49;1.83;;;1.50;;
31037;SDS011;17702;47.590;7.666;2022-09-20T06:50:15;5.95;;;1.52;;
31037;SDS011;17702;47.590;7.666;2022-09-20T06:52:41;3.00;;;1.77;;
31037;SDS011;17702;47.590;7.666;2022-09-20T06:55:10;1.23;;;1.13;;
31037;SDS011;17702;47.590;7.666;2022-09-20T06:57:45;1.73;;;1.08;;
31037;SDS011;17702;47.590;7.666;2022-09-20T07:00:14;4.70;;;1.48;;
31037;SDS011;17702;47.590;7.666;2022-09-20T07:02:40;6.88;;;1.58;;
31037;SDS011;17702;47.590;7.666;2022-09-20T07:05:12;7.18;;;1.10;;
31037;SDS011;17702;47.590;7.666;2022-09-20T07:07:39;1.90;;;1.15;;
31037;SDS011;17702;47.590;7.666;2022-09-20T07:10:05;4.82;;;0.98;;
31037;SDS011;17702;47.590;7.666;2022-09-20T07:12:30;1.25;;;0.80;;
31037;SDS011;17702;47.590;7.666;2022-09-20T07:14:58;3.72;;;1.30;;
31037;SDS011;17702;47.590;7.666;2022-09-20T07:17:23;3.53;;;1.00;;
31037;SDS011;17702;47.590;7.666;2022-09-20T07:19:49;2.10;;;1.10;;
31037;SDS011;17702;47.590;7.666;2022-09-20T07:22:15;1.30;;;1.20;;
31037;SDS011;17702;47.590;7.666;2022-09-20T07:24:41;3.08;;;1.38;;
31037;SDS011;17702;47.590;7.666;2022-09-20T07:27:09;2.00;;;1.23;;
31037;SDS011;17702;47.590;7.666;2022-09-20T07:29:36;1.58;;;1.20;;
31037;SDS011;17702;47.590;7.666;2022-09-20T07:32:02;4.28;;;2.78;;
31037;SDS011;17702;47.590;7.666;2022-09-20T07:34:28;9.43;;;1.92;;
31037;SDS011;17702;47.590;7.666;2022-09-20T07:36:54;1.90;;;1.50;;
31037;SDS011;17702;47.590;7.666;2022-09-20T07:39:21;6.53;;;2.03;;
31037;SDS011;17702;47.590;7.666;2022-09-20T07:41:47;7.38;;;1.35;;
31037;SDS011;17702;47.590;7.666;2022-09-20T07:44:15;3.08;;;0.93;;
31037;SDS011;17702;47.590;7.666;2022-09-20T07:46:55;1.90;;;1.30;;
31037;SDS011;17702;47.590;7.666;2022-09-20T07:49:23;4.45;;;1.63;;
31037;SDS011;17702;47.590;7.666;2022-09-20T07:51:50;2.40;;;1.27;;
31037;SDS011;17702;47.590;7.666;2022-09-20T07:54:17;4.10;;;1.50;;
31037;SDS011;17702;47.590;7.666;2022-09-20T07:56:43;3.03;;;1.10;;
31037;SDS011;17702;47.590;7.666;2022-09-20T07:59:09;4.00;;;1.40;;
31037;SDS011;17702;47.590;7.666;2022-09-20T08:01:36;1.70;;;1.10;;
31037;SDS011;17702;47.590;7.666;2022-09-20T08:04:03;3.47;;;1.70;;
31037;SDS011;17702;47.590;7.666;2022-09-20T08:06:29;3.83;;;3.45;;
31037;SDS011;17702;47.590;7.666;2022-09-20T08:08:55;6.65;;;2.83;;
31037;SDS011;17702;47.590;7.666;2022-09-20T08:11:21;2.25;;;1.33;;
31037;SDS011;17702;47.590;7.666;2022-09-20T08:13:50;4.93;;;1.88;;
31037;SDS011;17702;47.590;7.666;2022-09-20T08:16:17;1.88;;;1.10;;
31037;SDS011;17702;47.590;7.666;2022-09-20T08:18:50;3.58;;;1.60;;
31037;SDS011;17702;47.590;7.666;2022-09-20T08:21:19;2.10;;;1.23;;
31037;SDS011;17702;47.590;7.666;2022-09-20T08:23:46;2.50;;;1.30;;
31037;SDS011;17702;47.590;7.666;2022-09-20T08:26:13;3.17;;;1.20;;
31037;SDS011;17702;47.590;7.666;2022-09-20T08:28:42;2.03;;;0.98;;
31037;SDS011;17702;47.590;7.666;2022-09-20T08:31:13;3.63;;;1.60;;
31037;SDS011;17702;47.590;7.666;2022-09-20T08:36:08;1.98;;;1.00;;
31037;SDS011;17702;47.590;7.666;2022-09-20T08:38:36;4.70;;;1.80;;
31037;SDS011;17702;47.590;7.666;2022-09-20T08:41:07;3.65;;;1.08;;
31037;SDS011;17702;47.590;7.666;2022-09-20T08:46:23;3.92;;;1.30;;
31037;SDS011;17702;47.590;7.666;2022-09-20T08:48:52;3.67;;;2.15;;
31037;SDS011;17702;47.590;7.666;2022-09-20T08:51:18;1.90;;;1.42;;
31037;SDS011;17702;47.590;7.666;2022-09-20T08:53:46;3.53;;;1.40;;
31037;SDS011;17702;47.590;7.666;2022-09-20T08:56:17;1.92;;;1.50;;
31037;SDS011;17702;47.590;7.666;2022-09-20T08:58:44;3.67;;;1.33;;
31037;SDS011;17702;47.590;7.666;2022-09-20T09:01:17;2.38;;;1.13;;
31037;SDS011;17702;47.590;7.666;2022-09-20T09:03:57;2.25;;;1.20;;
31037;SDS011;17702;47.590;7.666;2022-09-20T09:06:29;4.85;;;1.33;;
31037;SDS011;17702;47.590;7.666;2022-09-20T09:08:56;2.22;;;1.50;;
31037;SDS011;17702;47.590;7.666;2022-09-20T09:11:23;3.40;;;1.35;;
31037;SDS011;17702;47.590;7.666;2022-09-20T09:13:51;2.60;;;1.20;;
31037;SDS011;17702;47.590;7.666;2022-09-20T09:16:27;3.25;;;1.13;;
31037;SDS011;17702;47.590;7.666;2022-09-20T09:18:56;2.45;;;1.05;;
31037;SDS011;17702;47.590;7.666;2022-09-20T09:21:23;2.80;;;1.48;;
31037;SDS011;17702;47.590;7.666;2022-09-20T09:24:02;3.55;;;1.33;;
31037;SDS011;17702;47.590;7.666;2022-09-20T09:26:39;4.40;;;1.67;;
31037;SDS011;17702;47.590;7.666;2022-09-20T09:31:35;2.17;;;1.80;;
31037;SDS011;17702;47.590;7.666;2022-09-20T09:34:03;5.38;;;1.65;;
31037;SDS011;17702;47.590;7.666;2022-09-20T09:36:29;4.82;;;1.48;;
31037;SDS011;17702;47.590;7.666;2022-09-20T09:39:15;3.05;;;1.65;;
31037;SDS011;17702;47.590;7.666;2022-09-20T09:41:52;2.75;;;1.60;;
31037;SDS011;17702;47.590;7.666;2022-09-20T09:46:46;5.03;;;1.83;;
31037;SDS011;17702;47.590;7.666;2022-09-20T09:49:25;3.15;;;1.48;;
31037;SDS011;17702;47.590;7.666;2022-09-20T09:52:13;4.32;;;1.60;;
31037;SDS011;17702;47.590;7.666;2022-09-20T09:54:45;3.38;;;1.58;;
31037;SDS011;17702;47.590;7.666;2022-09-20T10:08:27;2.08;;;1.27;;
31037;SDS011;17702;47.590;7.666;2022-09-20T10:11:17;3.95;;;1.25;;
31037;SDS011;17702;47.590;7.666;2022-09-20T10:22:42;2.28;;;1.15;;
31037;SDS011;17702;47.590;7.666;2022-09-20T10:26:34;3.25;;;1.30;;
31037;SDS011;17702;47.590;7.666;2022-09-20T10:31:28;2.00;;;1.50;;
31037;SDS011;17702;47.590;7.666;2022-09-20T10:34:06;4.38;;;1.05;;
31037;SDS011;17702;47.590;7.666;2022-09-20T10:37:02;2.78;;;1.40;;
31037;SDS011;17702;47.590;7.666;2022-09-20T10:42:07;5.28;;;1.10;;
31037;SDS011;17702;47.590;7.666;2022-09-20T10:45:27;1.90;;;1.15;;
31037;SDS011;17702;47.590;7.666;2022-09-20T10:48:03;5.72;;;1.05;;
31037;SDS011;17702;47.590;7.666;2022-09-20T11:02:05;2.08;;;0.85;;
31037;SDS011;17702;47.590;7.666;2022-09-20T11:07:26;3.13;;;1.02;;
31037;SDS011;17702;47.590;7.666;2022-09-20T11:10:00;2.88;;;0.90;;
31037;SDS011;17702;47.590;7.666;2022-09-20T11:12:33;3.53;;;1.00;;
31037;SDS011;17702;47.590;7.666;2022-09-20T11:18:14;2.60;;;1.15;;
31037;SDS011;17702;47.590;7.666;2022-09-20T11:26:15;3.63;;;1.08;;
31037;SDS011;17702;47.590;7.666;2022-09-20T11:28:51;3.28;;;0.70;;
31037;SDS011;17702;47.590;7.666;2022-09-20T11:31:23;2.38;;;0.90;;
31037;SDS011;17702;47.590;7.666;2022-09-20T11:33:53;3.10;;;0.77;;
31037;SDS011;17702;47.590;7.666;2022-09-20T11:36:51;1.30;;;0.50;;
31037;SDS011;17702;47.590;7.666;2022-09-20T11:39:27;1.95;;;0.50;;
31037;SDS011;17702;47.590;7.666;2022-09-20T11:42:05;1.42;;;0.63;;
31037;SDS011;17702;47.590;7.666;2022-09-20T11:44:39;2.50;;;0.45;;
31037;SDS011;17702;47.590;7.666;2022-09-20T11:47:10;3.88;;;1.20;;
31037;SDS011;17702;47.590;7.666;2022-09-20T11:57:44;3.53;;;1.38;;
31037;SDS011;17702;47.590;7.666;2022-09-20T12:00:10;1.33;;;0.55;;
31037;SDS011;17702;47.590;7.666;2022-09-20T12:02:47;2.17;;;0.68;;
31037;SDS011;17702;47.590;7.666;2022-09-20T12:08:04;1.63;;;0.50;;
31037;SDS011;17702;47.590;7.666;2022-09-20T12:10:53;0.90;;;0.52;;
31037;SDS011;17702;47.590;7.666;2022-09-20T12:13:21;1.95;;;0.50;;
31037;SDS011;17702;47.590;7.666;2022-09-20T12:16:50;2.95;;;0.45;;
31037;SDS011;17702;47.590;7.666;2022-09-20T12:19:04;2.13;;;0.50;;
31037;SDS011;17702;47.590;7.666;2022-09-20T12:24:23;2.05;;;0.40;;
31037;SDS011;17702;47.590;7.666;2022-09-20T12:30:06;1.38;;;0.40;;
31037;SDS011;17702;47.590;7.666;2022-09-20T12:32:42;1.67;;;0.40;;
31037;SDS011;17702;47.590;7.666;2022-09-20T12:40:58;0.65;;;0.30;;
31037;SDS011;17702;47.590;7.666;2022-09-20T12:43:33;0.60;;;0.30;;
31037;SDS011;17702;47.590;7.666;2022-09-20T12:46:01;1.65;;;0.30;;
31037;SDS011;17702;47.590;7.666;2022-09-20T12:48:29;1.08;;;0.52;;
31037;SDS011;17702;47.590;7.666;2022-09-20T12:51:04;0.50;;;0.50;;
31037;SDS011;17702;47.590;7.666;2022-09-20T12:54:09;1.73;;;0.40;;
31037;SDS011;17702;47.590;7.666;2022-09-20T12:56:36;2.38;;;0.32;;
31037;SDS011;17702;47.590;7.666;2022-09-20T12:59:04;0.60;;;0.30;;
31037;SDS011;17702;47.590;7.666;2022-09-20T13:01:45;0.52;;;0.35;;
31037;SDS011;17702;47.590;7.666;2022-09-20T13:09:53;0.20;;;0.20;;
31037;SDS011;17702;47.590;7.666;2022-09-20T13:12:19;0.65;;;0.65;;
31037;SDS011;17702;47.590;7.666;2022-09-20T13:14:45;1.23;;;0.30;;
31037;SDS011;17702;47.590;7.666;2022-09-20T13:19:44;0.20;;;0.20;;
31037;SDS011;17702;47.590;7.666;2022-09-20T13:22:33;0.63;;;0.30;;
31037;SDS011;17702;47.590;7.666;2022-09-20T13:25:06;0.57;;;0.30;;
31037;SDS011;17702;47.590;7.666;2022-09-20T13:27:38;2.90;;;0.20;;
31037;SDS011;17702;47.590;7.666;2022-09-20T13:30:25;1.05;;;0.20;;
31037;SDS011;17702;47.590;7.666;2022-09-20T13:32:53;0.57;;;0.30;;
31037;SDS011;17702;47.590;7.666;2022-09-20T13:38:01;0.60;;;0.20;;
31037;SDS011;17702;47.590;7.666;2022-09-20T13:42:59;2.15;;;0.70;;
31037;SDS011;17702;47.590;7.666;2022-09-20T13:45:27;0.68;;;0.35;;
31037;SDS011;17702;47.590;7.666;2022-09-20T13:47:54;0.52;;;0.20;;
31037;SDS011;17702;47.590;7.666;2022-09-20T13:52:55;0.38;;;0.30;;
31037;SDS011;17702;47.590;7.666;2022-09-20T13:58:08;1.58;;;0.55;;
31037;SDS011;17702;47.590;7.666;2022-09-20T14:01:18;2.38;;;0.38;;
31037;SDS011;17702;47.590;7.666;2022-09-20T14:03:51;0.45;;;0.20;;
31037;SDS011;17702;47.590;7.666;2022-09-20T14:06:20;0.45;;;0.22;;
31037;SDS011;17702;47.590;7.666;2022-09-20T14:08:51;0.80;;;0.25;;
31037;SDS011;17702;47.590;7.666;2022-09-20T14:11:21;0.45;;;0.25;;
31037;SDS011;17702;47.590;7.666;2022-09-20T14:13:52;0.63;;;0.20;;
31037;SDS011;17702;47.590;7.666;2022-09-20T14:16:21;2.17;;;0.40;;
31037;SDS011;17702;47.590;7.666;2022-09-20T14:18:51;0.45;;;0.32;;
31037;SDS011;17702;47.590;7.666;2022-09-20T14:21:20;1.98;;;0.25;;
31037;SDS011;17702;47.590;7.666;2022-09-20T14:28:50;1.25;;;0.25;;
31037;SDS011;17702;47.590;7.666;2022-09-20T14:31:20;0.40;;;0.20;;
31037;SDS011;17702;47.590;7.666;2022-09-20T14:33:53;1.05;;;0.40;;
31037;SDS011;17702;47.590;7.666;2022-09-20T14:36:23;1.92;;;0.30;;
31037;SDS011;17702;47.590;7.666;2022-09-20T14:38:51;0.47;;;0.25;;
31037;SDS011;17702;47.590;7.666;2022-09-20T14:41:32;1.55;;;0.17;;
31037;SDS011;17702;47.590;7.666;2022-09-20T14:43:59;0.63;;;0.30;;
31037;SDS011;17702;47.590;7.666;2022-09-20T14:46:33;0.40;;;0.20;;
31037;SDS011;17702;47.590;7.666;2022-09-20T14:49:19;0.38;;;0.20;;
31037;SDS011;17702;47.590;7.666;2022-09-20T14:54:59;0.65;;;0.20;;
31037;SDS011;17702;47.590;7.666;2022-09-20T14:57:37;0.75;;;0.22;;
31037;SDS011;17702;47.590;7.666;2022-09-20T15:00:04;0.77;;;0.22;;
31037;SDS011;17702;47.590;7.666;2022-09-20T15:05:00;0.52;;;0.20;;
31037;SDS011;17702;47.590;7.666;2022-09-20T15:07:26;0.52;;;0.30;;
31037;SDS011;17702;47.590;7.666;2022-09-20T15:09:52;0.75;;;0.22;;
31037;SDS011;17702;47.590;7.666;2022-09-20T15:12:18;1.27;;;0.82;;
31037;SDS011;17702;47.590;7.666;2022-09-20T15:14:45;0.20;;;0.20;;
31037;SDS011;17702;47.590;7.666;2022-09-20T15:17:13;1.13;;;0.30;;
31037;SDS011;17702;47.590;7.666;2022-09-20T15:19:43;0.40;;;0.20;;
31037;SDS011;17702;47.590;7.666;2022-09-20T15:22:10;1.45;;;0.25;;
31037;SDS011;17702;47.590;7.666;2022-09-20T15:24:36;0.30;;;0.20;;
31037;SDS011;17702;47.590;7.666;2022-09-20T15:27:01;0.55;;;0.40;;
31037;SDS011;17702;47.590;7.666;2022-09-20T15:29:27;1.30;;;0.40;;
31037;SDS011;17702;47.590;7.666;2022-09-20T15:31:53;2.35;;;0.30;;
31037;SDS011;17702;47.590;7.666;2022-09-20T15:34:19;0.90;;;0.20;;
31037;SDS011;17702;47.590;7.666;2022-09-20T15:36:44;0.88;;;0.32;;
31037;SDS011;17702;47.590;7.666;2022-09-20T15:39:10;0.35;;;0.20;;
31037;SDS011;17702;47.590;7.666;2022-09-20T15:41:36;1.08;;;0.28;;
31037;SDS011;17702;47.590;7.666;2022-09-20T15:44:05;0.88;;;0.40;;
31037;SDS011;17702;47.590;7.666;2022-09-20T15:46:32;3.15;;;0.50;;
31037;SDS011;17702;47.590;7.666;2022-09-20T15:48:59;2.55;;;0.30;;
31037;SDS011;17702;47.590;7.666;2022-09-20T15:51:26;0.75;;;0.43;;
31037;SDS011;17702;47.590;7.666;2022-09-20T15:53:55;0.73;;;0.22;;
31037;SDS011;17702;47.590;7.666;2022-09-20T15:56:23;1.40;;;0.40;;
31037;SDS011;17702;47.590;7.666;2022-09-20T15:58:57;0.60;;;0.15;;
31037;SDS011;17702;47.590;7.666;2022-09-20T16:03:58;1.50;;;0.40;;
31037;SDS011;17702;47.590;7.666;2022-09-20T16:06:24;0.50;;;0.30;;
31037;SDS011;17702;47.590;7.666;2022-09-20T16:08:50;1.15;;;0.40;;
31037;SDS011;17702;47.590;7.666;2022-09-20T16:11:17;1.02;;;0.40;;
31037;SDS011;17702;47.590;7.666;2022-09-20T16:13:46;0.88;;;0.50;;
31037;SDS011;17702;47.590;7.666;2022-09-20T16:16:16;0.80;;;0.60;;
31037;SDS011;17702;47.590;7.666;2022-09-20T16:18:42;0.75;;;0.38;;
31037;SDS011;17702;47.590;7.666;2022-09-20T16:21:26;0.60;;;0.45;;
31037;SDS011;17702;47.590;7.666;2022-09-20T16:23:53;0.90;;;0.40;;
31037;SDS011;17702;47.590;7.666;2022-09-20T16:26:20;1.83;;;0.30;;
31037;SDS011;17702;47.590;7.666;2022-09-20T16:28:47;0.98;;;0.43;;
31037;SDS011;17702;47.590;7.666;2022-09-20T16:36:50;0.80;;;0.30;;
31037;SDS011;17702;47.590;7.666;2022-09-20T16:39:21;1.42;;;0.50;;
31037;SDS011;17702;47.590;7.666;2022-09-20T16:42:03;1.05;;;0.40;;
31037;SDS011;17702;47.590;7.666;2022-09-20T16:44:39;0.57;;;0.40;;
31037;SDS011;17702;47.590;7.666;2022-09-20T16:47:07;2.15;;;0.50;;
31037;SDS011;17702;47.590;7.666;2022-09-20T16:49:36;1.30;;;0.40;;
31037;SDS011;17702;47.590;7.666;2022-09-20T16:52:08;0.82;;;0.60;;
31037;SDS011;17702;47.590;7.666;2022-09-20T16:54:35;1.40;;;0.32;;
31037;SDS011;17702;47.590;7.666;2022-09-20T16:57:01;0.77;;;0.40;;
31037;SDS011;17702;47.590;7.666;2022-09-20T16:59:26;1.23;;;0.65;;
31037;SDS011;17702;47.590;7.666;2022-09-20T17:01:52;1.52;;;0.40;;
31037;SDS011;17702;47.590;7.666;2022-09-20T17:04:18;0.45;;;0.32;;
31037;SDS011;17702;47.590;7.666;2022-09-20T17:06:45;0.65;;;0.40;;
31037;SDS011;17702;47.590;7.666;2022-09-20T17:09:12;0.43;;;0.38;;
31037;SDS011;17702;47.590;7.666;2022-09-20T17:11:40;0.43;;;0.30;;
31037;SDS011;17702;47.590;7.666;2022-09-20T17:14:08;1.55;;;0.40;;
31037;SDS011;17702;47.590;7.666;2022-09-20T17:16:35;0.95;;;0.30;;
31037;SDS011;17702;47.590;7.666;2022-09-20T17:19:03;0.30;;;0.30;;
31037;SDS011;17702;47.590;7.666;2022-09-20T17:21:31;1.05;;;0.40;;
31037;SDS011;17702;47.590;7.666;2022-09-20T17:23:57;3.63;;;0.30;;
31037;SDS011;17702;47.590;7.666;2022-09-20T17:26:25;0.30;;;0.20;;
31037;SDS011;17702;47.590;7.666;2022-09-20T17:28:58;1.00;;;0.38;;
31037;SDS011;17702;47.590;7.666;2022-09-20T17:31:26;2.65;;;0.32;;
31037;SDS011;17702;47.590;7.666;2022-09-20T17:33:58;0.90;;;0.50;;
31037;SDS011;17702;47.590;7.666;2022-09-20T17:36:28;0.95;;;0.40;;
31037;SDS011;17702;47.590;7.666;2022-09-20T17:38:56;1.15;;;0.40;;
31037;SDS011;17702;47.590;7.666;2022-09-20T17:41:24;0.30;;;0.30;;
31037;SDS011;17702;47.590;7.666;2022-09-20T17:43:54;0.75;;;0.47;;
31037;SDS011;17702;47.590;7.666;2022-09-20T17:46:22;2.22;;;0.60;;
31037;SDS011;17702;47.590;7.666;2022-09-20T17:48:56;1.30;;;0.40;;
31037;SDS011;17702;47.590;7.666;2022-09-20T17:51:29;0.30;;;0.22;;
31037;SDS011;17702;47.590;7.666;2022-09-20T17:53:57;1.13;;;0.40;;
31037;SDS011;17702;47.590;7.666;2022-09-20T17:56:23;0.95;;;0.52;;
31037;SDS011;17702;47.590;7.666;2022-09-20T17:58:54;1.75;;;0.50;;
31037;SDS011;17702;47.590;7.666;2022-09-20T18:01:22;2.22;;;0.20;;
31037;SDS011;17702;47.590;7.666;2022-09-20T18:03:49;2.53;;;0.73;;
31037;SDS011;17702;47.590;7.666;2022-09-20T18:06:25;0.70;;;0.60;;
31037;SDS011;17702;47.590;7.666;2022-09-20T18:08:55;1.70;;;0.40;;
31037;SDS011;17702;47.590;7.666;2022-09-20T18:11:28;1.10;;;0.50;;
31037;SDS011;17702;47.590;7.666;2022-09-20T18:13:58;2.80;;;0.50;;
31037;SDS011;17702;47.590;7.666;2022-09-20T18:16:25;3.50;;;0.70;;
31037;SDS011;17702;47.590;7.666;2022-09-20T18:18:51;0.98;;;0.40;;
31037;SDS011;17702;47.590;7.666;2022-09-20T18:21:17;2.25;;;0.85;;
31037;SDS011;17702;47.590;7.666;2022-09-20T18:23:45;2.58;;;0.50;;
31037;SDS011;17702;47.590;7.666;2022-09-20T18:26:12;2.83;;;0.60;;
31037;SDS011;17702;47.590;7.666;2022-09-20T18:34:00;0.80;;;0.60;;
31037;SDS011;17702;47.590;7.666;2022-09-20T18:36:28;1.02;;;0.63;;
31037;SDS011;17702;47.590;7.666;2022-09-20T18:38:56;2.25;;;0.63;;
31037;SDS011;17702;47.590;7.666;2022-09-20T18:41:23;1.15;;;0.80;;
31037;SDS011;17702;47.590;7.666;2022-09-20T18:43:54;0.90;;;0.50;;
31037;SDS011;17702;47.590;7.666;2022-09-20T18:46:20;1.30;;;0.68;;
31037;SDS011;17702;47.590;7.666;2022-09-20T18:48:54;1.67;;;1.17;;
31037;SDS011;17702;47.590;7.666;2022-09-20T18:51:22;1.08;;;0.70;;
31037;SDS011;17702;47.590;7.666;2022-09-20T18:53:49;1.05;;;0.95;;
31037;SDS011;17702;47.590;7.666;2022-09-20T18:56:19;0.88;;;0.50;;
31037;SDS011;17702;47.590;7.666;2022-09-20T18:58:45;2.50;;;0.98;;
31037;SDS011;17702;47.590;7.666;2022-09-20T19:09:23;1.50;;;1.00;;
31037;SDS011;17702;47.590;7.666;2022-09-20T19:11:58;3.38;;;0.98;;
31037;SDS011;17702;47.590;7.666;2022-09-20T19:14:29;1.52;;;0.82;;
31037;SDS011;17702;47.590;7.666;2022-09-20T19:17:17;1.85;;;1.10;;
31037;SDS011;17702;47.590;7.666;2022-09-20T19:20:07;1.40;;;0.80;;
31037;SDS011;17702;47.590;7.666;2022-09-20T19:28:10;9.40;;;8.57;;
31037;SDS011;17702;47.590;7.666;2022-09-20T19:30:38;5.38;;;4.93;;
31037;SDS011;17702;47.590;7.666;2022-09-20T19:33:09;8.30;;;7.68;;
31037;SDS011;17702;47.590;7.666;2022-09-20T19:35:39;1.20;;;1.10;;
31037;SDS011;17702;47.590;7.666;2022-09-20T19:38:12;1.58;;;1.02;;
31037;SDS011;17702;47.590;7.666;2022-09-20T19:49:15;4.10;;;1.15;;
31037;SDS011;17702;47.590;7.666;2022-09-20T19:51:44;2.40;;;0.93;;
31037;SDS011;17702;47.590;7.666;2022-09-20T19:54:11;0.93;;;0.93;;
31037;SDS011;17702;47.590;7.666;2022-09-20T19:56:50;1.52;;;1.00;;
31037;SDS011;17702;47.590;7.666;2022-09-20T19:59:19;1.25;;;1.15;;
31037;SDS011;17702;47.590;7.666;2022-09-20T20:01:49;1.02;;;1.00;;
31037;SDS011;17702;47.590;7.666;2022-09-20T20:04:16;1.48;;;0.95;;
31037;SDS011;17702;47.590;7.666;2022-09-20T20:09:28;1.05;;;0.95;;
31037;SDS011;17702;47.590;7.666;2022-09-20T20:12:42;0.80;;;0.73;;
31037;SDS011;17702;47.590;7.666;2022-09-20T20:20:38;1.35;;;1.05;;
31037;SDS011;17702;47.590;7.666;2022-09-20T20:28:39;1.45;;;0.80;;
31037;SDS011;17702;47.590;7.666;2022-09-20T20:31:05;1.40;;;1.00;;
31037;SDS011;17702;47.590;7.666;2022-09-20T20:33:33;5.22;;;1.13;;
31037;SDS011;17702;47.590;7.666;2022-09-20T20:35:59;1.40;;;1.00;;
31037;SDS011;17702;47.590;7.666;2022-09-20T20:38:26;2.25;;;0.98;;
31037;SDS011;17702;47.590;7.666;2022-09-20T20:40:59;1.30;;;1.20;;
31037;SDS011;17702;47.590;7.666;2022-09-20T20:43:38;1.30;;;1.02;;
31037;SDS011;17702;47.590;7.666;2022-09-20T20:46:06;2.45;;;1.00;;
31037;SDS011;17702;47.590;7.666;2022-09-20T20:48:33;2.20;;;1.50;;
31037;SDS011;17702;47.590;7.666;2022-09-20T20:51:04;5.28;;;1.20;;
31037;SDS011;17702;47.590;7.666;2022-09-20T20:53:34;2.05;;;1.10;;
31037;SDS011;17702;47.590;7.666;2022-09-20T20:56:08;4.00;;;1.10;;